Shanghai Express — DPCK — position and weather

sailwx.info

Track history (hours):
 
Tides and Currents Weather Stations Pressure Air Temp Water Temp Dewpoint Dewpoint Depression Visibility Wind Speed Wind Dir Waves Ship Positions

Shanghai Express

Last reported at 2017-Aug-13 00:00 UTC. Time now 2017-Aug-16 13:11 UTC.
Position N 49°54' W 172°18'.

Length 320.6 m; beam 42.8 m; draft 14.5 m.

Type: Ship. MMSI: 211367460.

Wind from 060 at 17 knots

Barometer 1006.5 mb
Air temperature 13.5 ° C
Visibility: greater than 0.0 NM
Dewpoint 13.5 ° C
Water temperature 11.0 ° C

Date/timePositionNaut miles runAvg speedWind from/ knotsBaromVisibWave heightAir tempDewpointWater temp
2017-Aug-13 00:00N 49°54' W 172°18'20617.2 060 / 171006.5 0.0 13.513.511.0
2017-Aug-12 12:00N 49°36' W 167°00'52217.4 120 / 121011.0 0.1 12.511.612.0
2017-Aug-11 06:00N 47°48' W 154°06'20216.9 280 / 91012.010.8 14.011.414.0
2017-Aug-10 18:00N 46°42' W 149°24'20717.2 230 / 191009.5 0.3 14.513.714.0
2017-Aug-10 06:00N 45°24' W 144°48'10217.0 310 / 61017.0 14.511.916.0
2017-Aug-10 00:00N 44°42' W 142°36'11418.9 180 / 101018.5 17.517.516.0
2017-Aug-09 18:00N 43°54' W 140°12'20417.0 140 / 161021.010.8 18.014.817.0
2017-Aug-09 06:00N 42°18' W 136°06'5316.5 340 / 61022.0 5.4 17.011.918.0
2017-Aug-09 02:45N 41°52' W 135°03'516.7
2017-Aug-09 02:29N 41°50' W 134°57'816.6
2017-Aug-09 02:00N 41°46' W 134°48'1017.0
2017-Aug-09 01:24N 41°41' W 134°36'1216.9
2017-Aug-09 00:40N 41°35' W 134°22'1717.1
2017-Aug-08 23:42N 41°26' W 134°03'717.5
2017-Aug-08 23:17N 41°22' W 133°55'517.6
2017-Aug-08 23:00N 41°20' W 133°49'917.7
2017-Aug-08 22:30N 41°15' W 133°39'1417.6
2017-Aug-08 21:41N 41°08' W 133°23'717.8
2017-Aug-08 21:18N 41°04' W 133°15'517.5
2017-Aug-08 21:00N 41°01' W 133°09'1417.6
2017-Aug-08 20:14N 40°54' W 132°54'517.4
2017-Aug-08 19:58N 40°52' W 132°49'1017.6
2017-Aug-08 19:24N 40°47' W 132°38'817.1
2017-Aug-08 18:58N 40°43' W 132°29'917.7
2017-Aug-08 18:28N 40°38' W 132°19'1327.1
2017-Aug-08 18:00N 40°30' W 132°06'2 6.8 020 / 121021.5 5.4 17.515.118.0
2017-Aug-08 17:46N 40°31' W 132°05'2817.9
2017-Aug-08 16:11N 40°16' W 131°34'317.9
2017-Aug-08 16:00N 40°15' W 131°30'1118.2
2017-Aug-08 15:26N 40°09' W 131°19'818.2
2017-Aug-08 15:01N 40°05' W 131°10'2418.0
2017-Aug-08 13:40N 39°52' W 130°44'317.9
2017-Aug-08 13:30N 39°50' W 130°41'917.6
2017-Aug-08 13:01N 39°45' W 130°31'917.7
2017-Aug-08 12:30N 39°40' W 130°22'1017.7
2017-Aug-08 11:57N 39°35' W 130°11'1417.6
2017-Aug-08 11:10N 39°27' W 129°56'717.7
2017-Aug-08 10:46N 39°23' W 129°49'517.5
2017-Aug-08 10:29N 39°21' W 129°43'817.7
2017-Aug-08 10:01N 39°16' W 129°34'917.7
2017-Aug-08 09:29N 39°11' W 129°24'917.7
2017-Aug-08 08:58N 39°06' W 129°14'817.7
2017-Aug-08 08:30N 39°01' W 129°06'918.0
2017-Aug-08 08:00N 38°56' W 128°56'1417.9
2017-Aug-08 07:14N 38°48' W 128°41'417.8
2017-Aug-08 07:00N 38°46' W 128°37'2221.6
2017-Aug-08 06:00N 38°30' W 128°18'16817.9 030 / 101018.5 5.4
2017-Aug-07 20:38N 38°14' W 124°45'317.9
2017-Aug-07 20:29N 38°14' W 124°42'917.9
2017-Aug-07 20:00N 38°13' W 124°31'917.7
2017-Aug-07 19:30N 38°13' W 124°20'917.6
2017-Aug-07 19:00N 38°12' W 124°09'917.7
2017-Aug-07 18:31N 38°11' W 123°57'917.6
2017-Aug-07 18:00N 38°11' W 123°46'917.9
2017-Aug-07 17:29N 38°10' W 123°34'816.7
2017-Aug-07 17:00N 38°09' W 123°24'510.0
2017-Aug-07 16:30N 38°07' W 123°19'5 9.1
2017-Aug-07 16:00N 38°04' W 123°15'5 9.0
2017-Aug-07 15:30N 38°00' W 123°11'5 9.4
2017-Aug-07 15:00N 37°58' W 123°06'5 9.7
2017-Aug-07 14:30N 37°55' W 123°01'5 9.5
2017-Aug-07 14:00N 37°53' W 122°55'5 9.5
2017-Aug-07 13:30N 37°51' W 122°50'510.1
2017-Aug-07 13:00N 37°48' W 122°45'510.6
2017-Aug-07 12:30N 37°46' W 122°39'714.3
2017-Aug-07 12:01N 37°49' W 122°30'611.2
2017-Aug-07 11:31N 37°49' W 122°23'3 6.8
2017-Aug-07 11:01N 37°48' W 122°19'0 0.0
2017-Aug-07 10:30N 37°48' W 122°19'0 0.0
2017-Aug-07 10:00N 37°48' W 122°19'0 0.0
2017-Aug-07 09:30N 37°48' W 122°19'0 0.0
2017-Aug-07 09:00N 37°48' W 122°19'0 0.0
2017-Aug-07 08:30N 37°48' W 122°19'0 0.0
2017-Aug-07 07:59N 37°48' W 122°19'0 0.0
2017-Aug-07 07:29N 37°48' W 122°19'0 0.0
2017-Aug-07 06:59N 37°48' W 122°19'0 0.0
2017-Aug-07 06:29N 37°48' W 122°19'0 0.0
2017-Aug-07 05:59N 37°48' W 122°19'0 0.0
2017-Aug-07 05:28N 37°48' W 122°19'0 0.0
2017-Aug-07 04:58N 37°48' W 122°19'0 0.0
2017-Aug-07 04:28N 37°48' W 122°19'0 0.0
2017-Aug-07 03:58N 37°48' W 122°19'0 0.0
2017-Aug-07 03:31N 37°48' W 122°19'0 0.0
2017-Aug-07 02:57N 37°48' W 122°19'0 0.0
2017-Aug-07 02:30N 37°48' W 122°19'0 0.0
2017-Aug-07 02:00N 37°48' W 122°19'0 0.0
2017-Aug-07 01:30N 37°48' W 122°19'0 0.0
2017-Aug-07 00:59N 37°48' W 122°19'0 0.0
2017-Aug-07 00:29N 37°48' W 122°19'0 0.0
2017-Aug-06 23:59N 37°48' W 122°19'0 0.0
2017-Aug-06 23:29N 37°48' W 122°19'0 0.0
2017-Aug-06 22:59N 37°48' W 122°19'0 0.0
2017-Aug-06 22:29N 37°48' W 122°19'0 0.0
2017-Aug-06 21:58N 37°48' W 122°19'0 0.0
2017-Aug-06 21:28N 37°48' W 122°19'0 0.0
2017-Aug-06 20:58N 37°48' W 122°19'0 0.0
2017-Aug-06 20:31N 37°48' W 122°19'0 0.0
2017-Aug-06 20:00N 37°48' W 122°19'0 0.0
2017-Aug-06 19:30N 37°48' W 122°19'0 0.0
2017-Aug-06 19:00N 37°48' W 122°19'0 0.0
2017-Aug-06 18:30N 37°48' W 122°19'0 0.0
2017-Aug-06 17:59N 37°48' W 122°19'0 0.0
2017-Aug-06 17:29N 37°48' W 122°19'0 0.0
2017-Aug-06 16:59N 37°48' W 122°19'0 0.0
2017-Aug-06 16:29N 37°48' W 122°19'0 0.0
2017-Aug-06 15:58N 37°48' W 122°19'0 0.0
2017-Aug-06 15:28N 37°48' W 122°19'0 0.0
2017-Aug-06 14:58N 37°48' W 122°19'0 0.0
2017-Aug-06 14:28N 37°48' W 122°19'0 0.0
2017-Aug-06 13:30N 37°48' W 122°19'0 0.0
2017-Aug-06 13:00N 37°48' W 122°19'0 0.0
2017-Aug-06 12:30N 37°48' W 122°19'0 0.0
2017-Aug-06 12:00N 37°48' W 122°19'1 1.9
2017-Aug-06 11:31N 37°48' W 122°18'0 0.7
2017-Aug-06 11:00N 37°48' W 122°18'3 6.2
2017-Aug-06 10:30N 37°48' W 122°22'4 8.8
2017-Aug-06 10:00N 37°49' W 122°28'612.0
2017-Aug-06 09:30N 37°47' W 122°35'611.1
2017-Aug-06 09:00N 37°44' W 122°41'5 9.8
2017-Aug-06 08:30N 37°39' W 122°40'713.9
2017-Aug-06 08:01N 37°32' W 122°40'917.2
2017-Aug-06 07:30N 37°24' W 122°40'918.8
2017-Aug-06 07:00N 37°14' W 122°39'1019.5
2017-Aug-06 06:30N 37°05' W 122°36'1020.4
2017-Aug-06 06:00N 36°55' W 122°33'1020.5
2017-Aug-06 05:30N 36°45' W 122°28'1520.3
2017-Aug-06 04:45N 36°31' W 122°20'1219.7
2017-Aug-06 04:10N 36°21' W 122°14'1120.4
2017-Aug-06 03:37N 36°11' W 122°08'321.5
2017-Aug-06 03:30N 36°09' W 122°06'1121.0
2017-Aug-06 03:00N 35°60' W 121°59'1020.6
2017-Aug-06 02:30N 35°51' W 121°53'1121.2
2017-Aug-06 02:00N 35°42' W 121°46'1121.1
2017-Aug-06 01:30N 35°33' W 121°40'1020.8
2017-Aug-06 01:00N 35°24' W 121°33'1020.7
2017-Aug-06 00:30N 35°15' W 121°27'1020.4
2017-Aug-06 00:00N 35°06' W 121°20'1020.6
2017-Aug-05 23:30N 34°57' W 121°14'1020.6
2017-Aug-05 23:00N 34°49' W 121°08'1121.1
2017-Aug-05 22:30N 34°40' W 121°01'1020.8
2017-Aug-05 22:00N 34°31' W 120°54'1019.7
2017-Aug-05 21:30N 34°25' W 120°45'1020.2
2017-Aug-05 21:00N 34°22' W 120°33'1020.8
2017-Aug-05 20:30N 34°19' W 120°21'1019.9
2017-Aug-05 20:00N 34°17' W 120°09'715.0
2017-Aug-05 19:31N 34°15' W 120°00'5 9.4
2017-Aug-05 19:00N 34°14' W 119°55'5 9.6
2017-Aug-05 18:30N 34°13' W 119°49'5 9.6
2017-Aug-05 18:00N 34°11' W 119°44'612.4
2017-Aug-05 17:30N 34°09' W 119°36'919.0
2017-Aug-05 17:00N 34°07' W 119°26'1019.9
2017-Aug-05 16:29N 34°04' W 119°14'919.0
2017-Aug-05 16:00N 33°59' W 119°04'612.2
2017-Aug-05 15:31N 33°56' W 118°58'611.6
2017-Aug-05 15:00N 33°53' W 118°51'611.6
2017-Aug-05 14:30N 33°50' W 118°45'611.5
2017-Aug-05 14:00N 33°47' W 118°39'611.7
2017-Aug-05 13:30N 33°44' W 118°33'611.7
2017-Aug-05 13:00N 33°42' W 118°27'611.7
2017-Aug-05 12:30N 33°39' W 118°21'5 9.6
2017-Aug-05 12:00N 33°40' W 118°16'3 6.7
2017-Aug-05 11:29N 33°44' W 118°16'2 3.2
2017-Aug-05 11:00N 33°45' W 118°16'0 0.9
2017-Aug-05 10:29N 33°46' W 118°16'0 0.0
2017-Aug-05 09:26N 33°46' W 118°15'0 0.0
2017-Aug-05 08:50N 33°46' W 118°15'0 0.1
2017-Aug-05 08:26N 33°46' W 118°16'0 0.0
2017-Aug-05 07:56N 33°46' W 118°16'0 0.0
2017-Aug-05 07:07N 33°46' W 118°16'0 0.3
2017-Aug-05 06:55N 33°46' W 118°15'0 0.1
2017-Aug-05 06:25N 33°46' W 118°15'0 0.1
2017-Aug-05 05:26N 33°46' W 118°16'0 0.0
2017-Aug-05 04:56N 33°46' W 118°16'0 0.0
2017-Aug-05 04:08N 33°46' W 118°16'0 0.0
2017-Aug-05 03:19N 33°46' W 118°16'0 0.0
2017-Aug-05 02:55N 33°46' W 118°16'0 0.1
2017-Aug-05 02:19N 33°46' W 118°15'0 0.0
2017-Aug-05 01:55N 33°46' W 118°15'0 0.1
2017-Aug-05 01:26N 33°46' W 118°16'0 0.0
2017-Aug-05 00:38N 33°46' W 118°16'0 0.0
2017-Aug-05 00:30N 33°46' W 118°16'0 0.0
2017-Aug-04 23:55N 33°46' W 118°16'0 0.0
2017-Aug-04 23:30N 33°46' W 118°16'0 0.1
2017-Aug-04 22:54N 33°46' W 118°16'0 0.1
2017-Aug-04 22:26N 33°46' W 118°16'0 0.0
2017-Aug-04 21:48N 33°46' W 118°16'0 0.1
2017-Aug-04 21:24N 33°46' W 118°15'0 0.1
2017-Aug-04 21:00N 33°46' W 118°16'0 0.0
2017-Aug-04 20:30N 33°46' W 118°16'0 0.0
2017-Aug-04 19:59N 33°46' W 118°16'0 0.0
2017-Aug-04 19:29N 33°46' W 118°16'0 0.0
2017-Aug-04 18:58N 33°46' W 118°16'0 0.0
2017-Aug-04 18:28N 33°46' W 118°16'0 0.1
2017-Aug-04 17:58N 33°46' W 118°15'0 0.1
2017-Aug-04 17:28N 33°46' W 118°16'0 0.0
2017-Aug-04 16:58N 33°46' W 118°16'0 0.0
2017-Aug-04 16:27N 33°46' W 118°16'0 0.0
2017-Aug-04 15:51N 33°46' W 118°16'0 0.0
2017-Aug-04 15:09N 33°46' W 118°16'0 0.0
2017-Aug-04 15:00N 33°46' W 118°16'0 0.0
2017-Aug-04 13:50N 33°46' W 118°16'0 0.1
2017-Aug-04 13:20N 33°46' W 118°15'0 0.2
2017-Aug-04 13:00N 33°46' W 118°16'0 0.1
2017-Aug-04 12:29N 33°46' W 118°15'0 0.1
2017-Aug-04 11:59N 33°46' W 118°16'0 0.0
2017-Aug-04 11:23N 33°46' W 118°16'0 0.0
2017-Aug-04 10:59N 33°46' W 118°16'0 0.1
2017-Aug-04 10:29N 33°46' W 118°15'0 0.1
2017-Aug-04 09:58N 33°46' W 118°16'0 0.1
2017-Aug-04 09:28N 33°46' W 118°15'0 0.1
2017-Aug-04 08:58N 33°46' W 118°16'0 0.0
2017-Aug-04 08:22N 33°46' W 118°16'0 0.0
2017-Aug-04 07:51N 33°46' W 118°16'0 0.0
2017-Aug-04 07:21N 33°46' W 118°16'0 0.0
2017-Aug-04 06:56N 33°46' W 118°16'0 0.1
2017-Aug-04 06:15N 33°46' W 118°15'0 0.1
2017-Aug-04 05:45N 33°46' W 118°16'0 0.0
2017-Aug-04 05:03N 33°46' W 118°16'0 0.0
2017-Aug-04 04:32N 33°46' W 118°16'0 0.0
2017-Aug-04 04:26N 33°46' W 118°16'0 0.0
2017-Aug-04 03:32N 33°46' W 118°16'0 0.0
2017-Aug-04 03:14N 33°46' W 118°16'0 0.0
2017-Aug-04 02:56N 33°46' W 118°16'0 0.0
2017-Aug-04 02:13N 33°46' W 118°16'0 0.0
2017-Aug-04 01:55N 33°46' W 118°16'0 0.0
2017-Aug-04 01:27N 33°46' W 118°16'0 0.1
2017-Aug-04 00:40N 33°46' W 118°15'0 0.2
2017-Aug-04 00:28N 33°46' W 118°16'0 0.0
2017-Aug-03 23:58N 33°46' W 118°16'0 0.0
2017-Aug-03 23:21N 33°46' W 118°16'0 0.1
2017-Aug-03 22:52N 33°46' W 118°15'0 0.1
2017-Aug-03 22:21N 33°46' W 118°15'0 0.1
2017-Aug-03 21:57N 33°46' W 118°16'0 0.0
2017-Aug-03 21:21N 33°46' W 118°16'0 0.1
2017-Aug-03 20:32N 33°46' W 118°15'0 0.5
2017-Aug-03 20:26N 33°46' W 118°16'0 0.0
2017-Aug-03 19:38N 33°46' W 118°16'0 0.0
2017-Aug-03 19:26N 33°46' W 118°16'0 0.0
2017-Aug-03 19:00N 33°46' W 118°16'0 0.0
2017-Aug-03 18:23N 33°46' W 118°16'0 0.0
2017-Aug-03 17:53N 33°46' W 118°16'0 0.0
2017-Aug-03 17:29N 33°46' W 118°16'0 0.0
2017-Aug-03 16:59N 33°46' W 118°16'0 0.1
2017-Aug-03 16:22N 33°46' W 118°15'0 0.0
2017-Aug-03 15:46N 33°46' W 118°15'0 0.1
2017-Aug-03 15:22N 33°46' W 118°16'0 0.0
2017-Aug-03 14:57N 33°46' W 118°16'0 0.0
2017-Aug-03 13:14N 33°46' W 118°15'0 0.2
2017-Aug-03 13:00N 33°46' W 118°16'0 0.0
2017-Aug-03 12:13N 33°46' W 118°16'0 0.0
2017-Aug-03 11:54N 33°46' W 118°16'0 0.0
2017-Aug-03 11:30N 33°46' W 118°16'0 0.1
2017-Aug-03 10:40N 33°46' W 118°15'0 0.1
2017-Aug-03 10:16N 33°46' W 118°16'0 0.0
2017-Aug-03 09:58N 33°46' W 118°16'0 0.0
2017-Aug-03 08:06N 33°46' W 118°16'0 0.0
2017-Aug-03 07:54N 33°46' W 118°16'0 0.0
2017-Aug-03 07:30N 33°46' W 118°16'0 0.0
2017-Aug-03 06:54N 33°46' W 118°16'0 0.0
2017-Aug-03 06:30N 33°46' W 118°16'0 0.0
2017-Aug-03 05:53N 33°46' W 118°16'0 0.0
2017-Aug-03 05:29N 33°46' W 118°16'0 0.0
2017-Aug-03 04:53N 33°46' W 118°16'0 0.0
2017-Aug-03 04:29N 33°46' W 118°16'0 0.1
2017-Aug-03 04:00N 33°46' W 118°15'0 0.1
2017-Aug-03 03:28N 33°46' W 118°16'0 0.0
2017-Aug-03 02:58N 33°46' W 118°16'0 0.0
2017-Aug-03 02:22N 33°46' W 118°16'0 0.0
2017-Aug-03 01:58N 33°46' W 118°16'0 0.0
2017-Aug-03 01:26N 33°46' W 118°16'0 0.0
2017-Aug-03 00:56N 33°46' W 118°16'0 0.0
2017-Aug-03 00:26N 33°46' W 118°16'  
Track history (hours):
 
Tides and Currents Weather Stations Pressure Air Temp Water Temp Dewpoint Dewpoint Depression Visibility Wind Speed Wind Dir Waves Ship Positions

Shanghai Express

Last reported at 2017-Aug-13 00:00 UTC. Time now 2017-Aug-16 13:11 UTC.
Position N 49°54' W 172°18'.

Length 320.6 m; beam 42.8 m; draft 14.5 m.

Type: Ship. MMSI: 211367460.

Wind from 060 at 17 knots

Barometer 1006.5 mb
Air temperature 13.5 ° C
Visibility: greater than 0.0 NM
Dewpoint 13.5 ° C
Water temperature 11.0 ° C

Date/timePositionNaut miles runAvg speedWind from/ knotsBaromVisibWave heightAir tempDewpointWater temp
2017-Aug-13 00:00N 49°54' W 172°18'20617.2 060 / 171006.5 0.0 13.513.511.0
2017-Aug-12 12:00N 49°36' W 167°00'52217.4 120 / 121011.0 0.1 12.511.612.0
2017-Aug-11 06:00N 47°48' W 154°06'20216.9 280 / 91012.010.8 14.011.414.0
2017-Aug-10 18:00N 46°42' W 149°24'20717.2 230 / 191009.5 0.3 14.513.714.0
2017-Aug-10 06:00N 45°24' W 144°48'10217.0 310 / 61017.0 14.511.916.0
2017-Aug-10 00:00N 44°42' W 142°36'11418.9 180 / 101018.5 17.517.516.0
2017-Aug-09 18:00N 43°54' W 140°12'20417.0 140 / 161021.010.8 18.014.817.0
2017-Aug-09 06:00N 42°18' W 136°06'5316.5 340 / 61022.0 5.4 17.011.918.0
2017-Aug-09 02:45N 41°52' W 135°03'516.7
2017-Aug-09 02:29N 41°50' W 134°57'816.6
2017-Aug-09 02:00N 41°46' W 134°48'1017.0
2017-Aug-09 01:24N 41°41' W 134°36'1216.9
2017-Aug-09 00:40N 41°35' W 134°22'1717.1
2017-Aug-08 23:42N 41°26' W 134°03'717.5
2017-Aug-08 23:17N 41°22' W 133°55'517.6
2017-Aug-08 23:00N 41°20' W 133°49'917.7
2017-Aug-08 22:30N 41°15' W 133°39'1417.6
2017-Aug-08 21:41N 41°08' W 133°23'717.8
2017-Aug-08 21:18N 41°04' W 133°15'517.5
2017-Aug-08 21:00N 41°01' W 133°09'1417.6
2017-Aug-08 20:14N 40°54' W 132°54'517.4
2017-Aug-08 19:58N 40°52' W 132°49'1017.6
2017-Aug-08 19:24N 40°47' W 132°38'817.1
2017-Aug-08 18:58N 40°43' W 132°29'917.7
2017-Aug-08 18:28N 40°38' W 132°19'1327.1
2017-Aug-08 18:00N 40°30' W 132°06'2 6.8 020 / 121021.5 5.4 17.515.118.0
2017-Aug-08 17:46N 40°31' W 132°05'2817.9
2017-Aug-08 16:11N 40°16' W 131°34'317.9
2017-Aug-08 16:00N 40°15' W 131°30'1118.2
2017-Aug-08 15:26N 40°09' W 131°19'818.2
2017-Aug-08 15:01N 40°05' W 131°10'2418.0
2017-Aug-08 13:40N 39°52' W 130°44'317.9
2017-Aug-08 13:30N 39°50' W 130°41'917.6
2017-Aug-08 13:01N 39°45' W 130°31'917.7
2017-Aug-08 12:30N 39°40' W 130°22'1017.7
2017-Aug-08 11:57N 39°35' W 130°11'1417.6
2017-Aug-08 11:10N 39°27' W 129°56'717.7
2017-Aug-08 10:46N 39°23' W 129°49'517.5
2017-Aug-08 10:29N 39°21' W 129°43'817.7
2017-Aug-08 10:01N 39°16' W 129°34'917.7
2017-Aug-08 09:29N 39°11' W 129°24'917.7
2017-Aug-08 08:58N 39°06' W 129°14'817.7
2017-Aug-08 08:30N 39°01' W 129°06'918.0
2017-Aug-08 08:00N 38°56' W 128°56'1417.9
2017-Aug-08 07:14N 38°48' W 128°41'417.8
2017-Aug-08 07:00N 38°46' W 128°37'2221.6
2017-Aug-08 06:00N 38°30' W 128°18'16817.9 030 / 101018.5 5.4
2017-Aug-07 20:38N 38°14' W 124°45'317.9
2017-Aug-07 20:29N 38°14' W 124°42'917.9
2017-Aug-07 20:00N 38°13' W 124°31'917.7
2017-Aug-07 19:30N 38°13' W 124°20'917.6
2017-Aug-07 19:00N 38°12' W 124°09'917.7
2017-Aug-07 18:31N 38°11' W 123°57'917.6
2017-Aug-07 18:00N 38°11' W 123°46'917.9
2017-Aug-07 17:29N 38°10' W 123°34'816.7
2017-Aug-07 17:00N 38°09' W 123°24'510.0
2017-Aug-07 16:30N 38°07' W 123°19'5 9.1
2017-Aug-07 16:00N 38°04' W 123°15'5 9.0
2017-Aug-07 15:30N 38°00' W 123°11'5 9.4
2017-Aug-07 15:00N 37°58' W 123°06'5 9.7
2017-Aug-07 14:30N 37°55' W 123°01'5 9.5
2017-Aug-07 14:00N 37°53' W 122°55'5 9.5
2017-Aug-07 13:30N 37°51' W 122°50'510.1
2017-Aug-07 13:00N 37°48' W 122°45'510.6
2017-Aug-07 12:30N 37°46' W 122°39'714.3
2017-Aug-07 12:01N 37°49' W 122°30'611.2
2017-Aug-07 11:31N 37°49' W 122°23'3 6.8
2017-Aug-07 11:01N 37°48' W 122°19'0 0.0
2017-Aug-07 10:30N 37°48' W 122°19'0 0.0
2017-Aug-07 10:00N 37°48' W 122°19'0 0.0
2017-Aug-07 09:30N 37°48' W 122°19'0 0.0
2017-Aug-07 09:00N 37°48' W 122°19'0 0.0
2017-Aug-07 08:30N 37°48' W 122°19'0 0.0
2017-Aug-07 07:59N 37°48' W 122°19'0 0.0
2017-Aug-07 07:29N 37°48' W 122°19'0 0.0
2017-Aug-07 06:59N 37°48' W 122°19'0 0.0
2017-Aug-07 06:29N 37°48' W 122°19'0 0.0
2017-Aug-07 05:59N 37°48' W 122°19'0 0.0
2017-Aug-07 05:28N 37°48' W 122°19'0 0.0
2017-Aug-07 04:58N 37°48' W 122°19'0 0.0
2017-Aug-07 04:28N 37°48' W 122°19'0 0.0
2017-Aug-07 03:58N 37°48' W 122°19'0 0.0
2017-Aug-07 03:31N 37°48' W 122°19'0 0.0
2017-Aug-07 02:57N 37°48' W 122°19'0 0.0
2017-Aug-07 02:30N 37°48' W 122°19'0 0.0
2017-Aug-07 02:00N 37°48' W 122°19'0 0.0
2017-Aug-07 01:30N 37°48' W 122°19'0 0.0
2017-Aug-07 00:59N 37°48' W 122°19'0 0.0
2017-Aug-07 00:29N 37°48' W 122°19'0 0.0
2017-Aug-06 23:59N 37°48' W 122°19'0 0.0
2017-Aug-06 23:29N 37°48' W 122°19'0 0.0
2017-Aug-06 22:59N 37°48' W 122°19'0 0.0
2017-Aug-06 22:29N 37°48' W 122°19'0 0.0
2017-Aug-06 21:58N 37°48' W 122°19'0 0.0
2017-Aug-06 21:28N 37°48' W 122°19'0 0.0
2017-Aug-06 20:58N 37°48' W 122°19'0 0.0
2017-Aug-06 20:31N 37°48' W 122°19'0 0.0
2017-Aug-06 20:00N 37°48' W 122°19'0 0.0
2017-Aug-06 19:30N 37°48' W 122°19'0 0.0
2017-Aug-06 19:00N 37°48' W 122°19'0 0.0
2017-Aug-06 18:30N 37°48' W 122°19'0 0.0
2017-Aug-06 17:59N 37°48' W 122°19'0 0.0
2017-Aug-06 17:29N 37°48' W 122°19'0 0.0
2017-Aug-06 16:59N 37°48' W 122°19'0 0.0
2017-Aug-06 16:29N 37°48' W 122°19'0 0.0
2017-Aug-06 15:58N 37°48' W 122°19'0 0.0
2017-Aug-06 15:28N 37°48' W 122°19'0 0.0
2017-Aug-06 14:58N 37°48' W 122°19'0 0.0
2017-Aug-06 14:28N 37°48' W 122°19'0 0.0
2017-Aug-06 13:30N 37°48' W 122°19'0 0.0
2017-Aug-06 13:00N 37°48' W 122°19'0 0.0
2017-Aug-06 12:30N 37°48' W 122°19'0 0.0
2017-Aug-06 12:00N 37°48' W 122°19'1 1.9
2017-Aug-06 11:31N 37°48' W 122°18'0 0.7
2017-Aug-06 11:00N 37°48' W 122°18'3 6.2
2017-Aug-06 10:30N 37°48' W 122°22'4 8.8
2017-Aug-06 10:00N 37°49' W 122°28'612.0
2017-Aug-06 09:30N 37°47' W 122°35'611.1
2017-Aug-06 09:00N 37°44' W 122°41'5 9.8
2017-Aug-06 08:30N 37°39' W 122°40'713.9
2017-Aug-06 08:01N 37°32' W 122°40'917.2
2017-Aug-06 07:30N 37°24' W 122°40'918.8
2017-Aug-06 07:00N 37°14' W 122°39'1019.5
2017-Aug-06 06:30N 37°05' W 122°36'1020.4
2017-Aug-06 06:00N 36°55' W 122°33'1020.5
2017-Aug-06 05:30N 36°45' W 122°28'1520.3
2017-Aug-06 04:45N 36°31' W 122°20'1219.7
2017-Aug-06 04:10N 36°21' W 122°14'1120.4
2017-Aug-06 03:37N 36°11' W 122°08'321.5
2017-Aug-06 03:30N 36°09' W 122°06'1121.0
2017-Aug-06 03:00N 35°60' W 121°59'1020.6
2017-Aug-06 02:30N 35°51' W 121°53'1121.2
2017-Aug-06 02:00N 35°42' W 121°46'1121.1
2017-Aug-06 01:30N 35°33' W 121°40'1020.8
2017-Aug-06 01:00N 35°24' W 121°33'1020.7
2017-Aug-06 00:30N 35°15' W 121°27'1020.4
2017-Aug-06 00:00N 35°06' W 121°20'1020.6
2017-Aug-05 23:30N 34°57' W 121°14'1020.6
2017-Aug-05 23:00N 34°49' W 121°08'1121.1
2017-Aug-05 22:30N 34°40' W 121°01'1020.8
2017-Aug-05 22:00N 34°31' W 120°54'1019.7
2017-Aug-05 21:30N 34°25' W 120°45'1020.2
2017-Aug-05 21:00N 34°22' W 120°33'1020.8
2017-Aug-05 20:30N 34°19' W 120°21'1019.9
2017-Aug-05 20:00N 34°17' W 120°09'715.0
2017-Aug-05 19:31N 34°15' W 120°00'5 9.4
2017-Aug-05 19:00N 34°14' W 119°55'5 9.6
2017-Aug-05 18:30N 34°13' W 119°49'5 9.6
2017-Aug-05 18:00N 34°11' W 119°44'612.4
2017-Aug-05 17:30N 34°09' W 119°36'919.0
2017-Aug-05 17:00N 34°07' W 119°26'1019.9
2017-Aug-05 16:29N 34°04' W 119°14'919.0
2017-Aug-05 16:00N 33°59' W 119°04'612.2
2017-Aug-05 15:31N 33°56' W 118°58'611.6
2017-Aug-05 15:00N 33°53' W 118°51'611.6
2017-Aug-05 14:30N 33°50' W 118°45'611.5
2017-Aug-05 14:00N 33°47' W 118°39'611.7
2017-Aug-05 13:30N 33°44' W 118°33'611.7
2017-Aug-05 13:00N 33°42' W 118°27'611.7
2017-Aug-05 12:30N 33°39' W 118°21'5 9.6
2017-Aug-05 12:00N 33°40' W 118°16'3 6.7
2017-Aug-05 11:29N 33°44' W 118°16'2 3.2
2017-Aug-05 11:00N 33°45' W 118°16'0 0.9
2017-Aug-05 10:29N 33°46' W 118°16'0 0.0
2017-Aug-05 09:26N 33°46' W 118°15'0 0.0
2017-Aug-05 08:50N 33°46' W 118°15'0 0.1
2017-Aug-05 08:26N 33°46' W 118°16'0 0.0
2017-Aug-05 07:56N 33°46' W 118°16'0 0.0
2017-Aug-05 07:07N 33°46' W 118°16'0 0.3
2017-Aug-05 06:55N 33°46' W 118°15'0 0.1
2017-Aug-05 06:25N 33°46' W 118°15'0 0.1
2017-Aug-05 05:26N 33°46' W 118°16'0 0.0
2017-Aug-05 04:56N 33°46' W 118°16'0 0.0
2017-Aug-05 04:08N 33°46' W 118°16'0 0.0
2017-Aug-05 03:19N 33°46' W 118°16'0 0.0
2017-Aug-05 02:55N 33°46' W 118°16'0 0.1
2017-Aug-05 02:19N 33°46' W 118°15'0 0.0
2017-Aug-05 01:55N 33°46' W 118°15'0 0.1
2017-Aug-05 01:26N 33°46' W 118°16'0 0.0
2017-Aug-05 00:38N 33°46' W 118°16'0 0.0
2017-Aug-05 00:30N 33°46' W 118°16'0 0.0
2017-Aug-04 23:55N 33°46' W 118°16'0 0.0
2017-Aug-04 23:30N 33°46' W 118°16'0 0.1
2017-Aug-04 22:54N 33°46' W 118°16'0 0.1
2017-Aug-04 22:26N 33°46' W 118°16'0 0.0
2017-Aug-04 21:48N 33°46' W 118°16'0 0.1
2017-Aug-04 21:24N 33°46' W 118°15'0 0.1
2017-Aug-04 21:00N 33°46' W 118°16'0 0.0
2017-Aug-04 20:30N 33°46' W 118°16'0 0.0
2017-Aug-04 19:59N 33°46' W 118°16'0 0.0
2017-Aug-04 19:29N 33°46' W 118°16'0 0.0
2017-Aug-04 18:58N 33°46' W 118°16'0 0.0
2017-Aug-04 18:28N 33°46' W 118°16'0 0.1
2017-Aug-04 17:58N 33°46' W 118°15'0 0.1
2017-Aug-04 17:28N 33°46' W 118°16'0 0.0
2017-Aug-04 16:58N 33°46' W 118°16'0 0.0
2017-Aug-04 16:27N 33°46' W 118°16'0 0.0
2017-Aug-04 15:51N 33°46' W 118°16'0 0.0
2017-Aug-04 15:09N 33°46' W 118°16'0 0.0
2017-Aug-04 15:00N 33°46' W 118°16'0 0.0
2017-Aug-04 13:50N 33°46' W 118°16'0 0.1
2017-Aug-04 13:20N 33°46' W 118°15'0 0.2
2017-Aug-04 13:00N 33°46' W 118°16'0 0.1
2017-Aug-04 12:29N 33°46' W 118°15'0 0.1
2017-Aug-04 11:59N 33°46' W 118°16'0 0.0
2017-Aug-04 11:23N 33°46' W 118°16'0 0.0
2017-Aug-04 10:59N 33°46' W 118°16'0 0.1
2017-Aug-04 10:29N 33°46' W 118°15'0 0.1
2017-Aug-04 09:58N 33°46' W 118°16'0 0.1
2017-Aug-04 09:28N 33°46' W 118°15'0 0.1
2017-Aug-04 08:58N 33°46' W 118°16'0 0.0
2017-Aug-04 08:22N 33°46' W 118°16'0 0.0
2017-Aug-04 07:51N 33°46' W 118°16'0 0.0
2017-Aug-04 07:21N 33°46' W 118°16'0 0.0
2017-Aug-04 06:56N 33°46' W 118°16'0 0.1
2017-Aug-04 06:15N 33°46' W 118°15'0 0.1
2017-Aug-04 05:45N 33°46' W 118°16'0 0.0
2017-Aug-04 05:03N 33°46' W 118°16'0 0.0
2017-Aug-04 04:32N 33°46' W 118°16'0 0.0
2017-Aug-04 04:26N 33°46' W 118°16'0 0.0
2017-Aug-04 03:32N 33°46' W 118°16'0 0.0
2017-Aug-04 03:14N 33°46' W 118°16'0 0.0
2017-Aug-04 02:56N 33°46' W 118°16'0 0.0
2017-Aug-04 02:13N 33°46' W 118°16'0 0.0
2017-Aug-04 01:55N 33°46' W 118°16'0 0.0
2017-Aug-04 01:27N 33°46' W 118°16'0 0.1
2017-Aug-04 00:40N 33°46' W 118°15'0 0.2
2017-Aug-04 00:28N 33°46' W 118°16'0 0.0
2017-Aug-03 23:58N 33°46' W 118°16'0 0.0
2017-Aug-03 23:21N 33°46' W 118°16'0 0.1
2017-Aug-03 22:52N 33°46' W 118°15'0 0.1
2017-Aug-03 22:21N 33°46' W 118°15'0 0.1
2017-Aug-03 21:57N 33°46' W 118°16'0 0.0
2017-Aug-03 21:21N 33°46' W 118°16'0 0.1
2017-Aug-03 20:32N 33°46' W 118°15'0 0.5
2017-Aug-03 20:26N 33°46' W 118°16'0 0.0
2017-Aug-03 19:38N 33°46' W 118°16'0 0.0
2017-Aug-03 19:26N 33°46' W 118°16'0 0.0
2017-Aug-03 19:00N 33°46' W 118°16'0 0.0
2017-Aug-03 18:23N 33°46' W 118°16'0 0.0
2017-Aug-03 17:53N 33°46' W 118°16'0 0.0
2017-Aug-03 17:29N 33°46' W 118°16'0 0.0
2017-Aug-03 16:59N 33°46' W 118°16'0 0.1
2017-Aug-03 16:22N 33°46' W 118°15'0 0.0
2017-Aug-03 15:46N 33°46' W 118°15'0 0.1
2017-Aug-03 15:22N 33°46' W 118°16'0 0.0
2017-Aug-03 14:57N 33°46' W 118°16'0 0.0
2017-Aug-03 13:14N 33°46' W 118°15'0 0.2
2017-Aug-03 13:00N 33°46' W 118°16'0 0.0
2017-Aug-03 12:13N 33°46' W 118°16'0 0.0
2017-Aug-03 11:54N 33°46' W 118°16'0 0.0
2017-Aug-03 11:30N 33°46' W 118°16'0 0.1
2017-Aug-03 10:40N 33°46' W 118°15'0 0.1
2017-Aug-03 10:16N 33°46' W 118°16'0 0.0
2017-Aug-03 09:58N 33°46' W 118°16'0 0.0
2017-Aug-03 08:06N 33°46' W 118°16'0 0.0
2017-Aug-03 07:54N 33°46' W 118°16'0 0.0
2017-Aug-03 07:30N 33°46' W 118°16'0 0.0
2017-Aug-03 06:54N 33°46' W 118°16'0 0.0
2017-Aug-03 06:30N 33°46' W 118°16'0 0.0
2017-Aug-03 05:53N 33°46' W 118°16'0 0.0
2017-Aug-03 05:29N 33°46' W 118°16'0 0.0
2017-Aug-03 04:53N 33°46' W 118°16'0 0.0
2017-Aug-03 04:29N 33°46' W 118°16'0 0.1
2017-Aug-03 04:00N 33°46' W 118°15'0 0.1
2017-Aug-03 03:28N 33°46' W 118°16'0 0.0
2017-Aug-03 02:58N 33°46' W 118°16'0 0.0
2017-Aug-03 02:22N 33°46' W 118°16'0 0.0
2017-Aug-03 01:58N 33°46' W 118°16'0 0.0
2017-Aug-03 01:26N 33°46' W 118°16'0 0.0
2017-Aug-03 00:56N 33°46' W 118°16'0 0.0
2017-Aug-03 00:26N 33°46' W 118°16'  

Dump ship's entire track history